KLWS/LWS METAR and TAF weather

Enter ICAO airport designator
Station Type Date Time Source
KLWS METAR 2020/09/19 20:56 UTC NOAA

KLWS 192056Z VRB03KT 10SM BKN060 OVC120 19/12 A3000 RMK AO2 SLP154 T01940117 58005


Station Type Date Time Source
KLWS Decoded METAR 2020/09/19 20:56 UTC NOAA

LEWISTON NEZ PERCE CO AIRPORT , ID, United States (KLWS) 46-22N 117-01W 438M
Sep 19, 2020 - 04:56 PM EDT / 2020.09.19 2056 UTC
Wind: Variable at 3 MPH (3 KT):0
Visibility: 10 mile(s):0
Sky conditions: overcast
Temperature: 66.9 F (19.4 C)
Dew Point: 53.1 F (11.7 C)
Relative Humidity: 61%
Pressure (altimeter): 30 in. Hg (1015 hPa)
Pressure tendency: 0.01 inches (0.5 hPa) lower than three hours ago
ob: KLWS 192056Z VRB03KT 10SM BKN060 OVC120 19/12 A3000 RMK AO2 SLP154 T01940117 58005
cycle: 21

Station Type Date Time Source
KLWS TAF 2020/09/19 19:58 UTC NOAA

TAF
AMD KLWS 191856Z 1919/2018 07008KT P6SM OVC050
FM200300 23005KT P6SM OVC100
FM200600 18004KT P6SM BKN050
FM201000 VRB04KT P6SM BKN100

Example: see airport list